Airfield :
LOGIN :

Register | Disclaimer

   EN    FR    IT 

 










Legend :    VFR   Marginal VFR   IFR   Intensive IFR   Very Intensive IFR
Visi :
Ceiling :
>= 8 km
>= 3000ft
5 to 8 km
1000 to 3000 ft
1500m to 5 km
500 to 1000 ft
800 to 1500m
200 to 500 ft
< 800m
< 200 ft
Symbols :   Thunderstorms  Fog  Heavy snow  Heavy precipitations  Wind > 20 kt
SIGMETs :     Misc.  Thunderstorms  Icing  Turbulence  Mountain Waves  Volcanic Ashes






- Airport Elevation : 1910 ft
- IATA code : RDZ


LFCR - Rodez

CURRENT METAR :
  • 200530Z AUTO 12004KT 0900 0800 R31/1100U FZFG VV/// M00/M01 Q1024 TEMPO 0600 FG BECMG BKN020

EXPIRED METARs :
  • 200500Z AUTO 08003KT 0550 0500 R31/0500D FG VV/// 00/M00 Q1024 TEMPO 0600 FG
  • 200430Z AUTO 12003KT 0900 0800 R31/1000U FG BKN005 00/00 Q1024 TEMPO 0600 FG VV///
  • 200400Z AUTO 14004KT 0900 0700 R31/1400D FG FEW008 00/00 Q1024 TEMPO 0600 FG VV///
  • 200330Z AUTO 14003KT 0700 0650 R31/0800D FG BKN009 00/00 Q1024 TEMPO VV///
  • 200300Z AUTO 15003KT 120V180 4600 BR OVC009 00/00 Q1025 TEMPO 0600 FG VV///

TAF TAF LFCR
Valid from the 20 at 00:00 until the 21 at 00:00 UTC


192300Z 2000/2024 VRB02KT 9999 BKN020
TEMPO 2000/2008 1200 BR
PROB40
TEMPO 2000/2007 0600 FG VV///
BECMG 2008/2010 CAVOK
BECMG 2016/2018 30010KT



MET'MAP, your aeronautical weather chart ! - Copyright ORBIFLY December 2007 - Disclaimer

ORBIFLY MET'MAP TEAM :

Programming & Development : Alexandra Zaïnal
Concept & original design : Baudouin d'Aumeries
Assistance for programming : Marc-Olivier Méhu
Technical & hardware support : Manuel Goepfert

Contact : metmap@orbifly.com




SOURCES & CREDITS :

   NOAA